createdAt,value
2022-12-24T00:01:46.085Z,97603.25
2022-12-24T00:04:12.879Z,97592.53
2022-12-24T00:06:39.990Z,97587.53
2022-12-24T00:09:06.778Z,97596.19
2022-12-24T00:11:33.869Z,97597.03
2022-12-24T00:14:00.786Z,97610.97
2022-12-24T00:16:28.183Z,97602.50
2022-12-24T00:18:55.036Z,97596.69
2022-12-24T00:21:22.151Z,97598.28
2022-12-24T00:23:48.941Z,97599.84
2022-12-24T00:26:15.999Z,97591.84
2022-12-24T00:28:42.807Z,97582.56
2022-12-24T00:31:14.717Z,97577.31
2022-12-24T00:33:41.685Z,97571.00
2022-12-24T00:36:09.650Z,97568.31
2022-12-24T00:38:36.413Z,97558.31
2022-12-24T00:41:04.296Z,97575.34
2022-12-24T00:43:31.146Z,97578.31
2022-12-24T00:46:00.205Z,97598.03
2022-12-24T00:48:27.044Z,97600.97
2022-12-24T00:50:54.258Z,97612.06
2022-12-24T00:53:21.200Z,97621.44
2022-12-24T00:55:48.298Z,97609.25
2022-12-24T00:58:15.121Z,97618.53
2022-12-24T01:00:42.194Z,97609.25
2022-12-24T01:03:09.087Z,97603.63
2022-12-24T01:05:36.427Z,97611.44
2022-12-24T01:08:03.229Z,97616.66
2022-12-24T01:10:30.356Z,97610.44
2022-12-24T01:12:57.116Z,97616.38
2022-12-24T01:15:24.186Z,97617.50
2022-12-24T01:17:50.939Z,97613.69
2022-12-24T01:20:18.104Z,97622.50
2022-12-24T01:22:45.047Z,97627.75
2022-12-24T01:25:12.211Z,97613.56
2022-12-24T01:27:38.946Z,97625.06
2022-12-24T01:30:07.499Z,97618.81
2022-12-24T01:32:34.289Z,97600.03
2022-12-24T01:35:01.297Z,97594.56
2022-12-24T01:37:28.234Z,97579.34
2022-12-24T01:40:15.251Z,97572.84
2022-12-24T01:43:02.762Z,97574.44
2022-12-24T01:45:42.227Z,97579.03
2022-12-24T01:48:27.810Z,97580.88
2022-12-24T01:50:58.047Z,97582.97
2022-12-24T01:53:24.832Z,97581.13
2022-12-24T01:55:51.957Z,97576.78
2022-12-24T01:58:18.731Z,97582.97
2022-12-24T02:00:45.787Z,97590.91
2022-12-24T02:03:12.691Z,97575.78
2022-12-24T02:05:47.670Z,97582.13
2022-12-24T02:08:14.700Z,97579.16
2022-12-24T02:10:41.900Z,97596.97
2022-12-24T02:13:08.671Z,97588.22
2022-12-24T02:15:56.087Z,97585.41
2022-12-24T02:18:26.897Z,97588.81
2022-12-24T02:21:03.162Z,97586.13
2022-12-24T02:23:58.724Z,97605.03
2022-12-24T02:26:34.958Z,97609.56
2022-12-24T02:29:18.355Z,97604.91
2022-12-24T02:31:51.927Z,97603.94
2022-12-24T02:34:25.023Z,97599.53
2022-12-24T02:37:31.887Z,97593.91
2022-12-24T02:40:12.122Z,97604.78
2022-12-24T02:42:49.102Z,97610.84
2022-12-24T02:45:17.968Z,97607.34
2022-12-24T02:47:45.190Z,97615.50
2022-12-24T02:50:14.335Z,97617.59
2022-12-24T02:52:43.571Z,97620.41
2022-12-24T02:55:17.836Z,97631.00
2022-12-24T02:58:10.301Z,97629.28
2022-12-24T03:00:58.515Z,97623.22
2022-12-24T03:03:40.676Z,97628.13
2022-12-24T03:06:45.184Z,97638.13
2022-12-24T03:09:26.164Z,97627.41
2022-12-24T03:12:04.267Z,97641.78
2022-12-24T03:14:31.504Z,97641.19
2022-12-24T03:16:58.237Z,97648.38
2022-12-24T03:19:25.675Z,97645.34
2022-12-24T03:21:52.437Z,97655.22
2022-12-24T03:24:19.565Z,97651.56
2022-12-24T03:26:46.921Z,97649.84
2022-12-24T03:29:14.021Z,97656.34
2022-12-24T03:31:44.998Z,97666.06
2022-12-24T03:34:12.476Z,97663.13
2022-12-24T03:36:39.344Z,97657.03
2022-12-24T03:39:06.755Z,97658.63
2022-12-24T03:41:33.632Z,97671.19
2022-12-24T03:44:00.733Z,97662.41
2022-12-24T03:46:27.804Z,97674.09
2022-12-24T03:48:54.971Z,97666.94
2022-12-24T03:51:22.973Z,97674.72
2022-12-24T03:53:51.745Z,97684.47
2022-12-24T03:56:18.508Z,97674.97
2022-12-24T03:58:45.566Z,97688.50
2022-12-24T04:01:12.460Z,97677.19
2022-12-24T04:03:39.662Z,97679.47
2022-12-24T04:06:08.521Z,97680.47
2022-12-24T04:08:35.992Z,97686.53
2022-12-24T04:11:09.542Z,97692.50
2022-12-24T04:13:37.078Z,97700.53
2022-12-24T04:16:06.049Z,97693.22
2022-12-24T04:18:33.170Z,97683.38
2022-12-24T04:20:59.921Z,97687.72
2022-12-24T04:23:26.961Z,97686.78
2022-12-24T04:25:53.699Z,97682.38
2022-12-24T04:28:20.833Z,97685.94
2022-12-24T04:30:47.573Z,97685.94
2022-12-24T04:33:14.634Z,97686.66
2022-12-24T04:35:41.577Z,97698.22
2022-12-24T04:38:09.596Z,97689.31
2022-12-24T04:40:36.381Z,97699.06
2022-12-24T04:43:03.481Z,97692.84
2022-12-24T04:45:30.267Z,97693.56
2022-12-24T04:47:57.364Z,97699.06
2022-12-24T04:50:24.135Z,97698.22
2022-12-24T04:52:51.168Z,97699.06
2022-12-24T04:55:17.961Z,97700.78
2022-12-24T04:57:49.733Z,97695.41
2022-12-24T05:00:19.764Z,97700.91
2022-12-24T05:02:46.898Z,97707.25
2022-12-24T05:05:13.738Z,97706.38
2022-12-24T05:07:40.801Z,97710.66
2022-12-24T05:10:08.252Z,97703.47
2022-12-24T05:12:35.288Z,97700.53
2022-12-24T05:15:02.008Z,97705.75
2022-12-24T05:17:29.070Z,97700.41
2022-12-24T05:19:55.809Z,97706.59
2022-12-24T05:22:41.573Z,97695.88
2022-12-24T05:25:28.429Z,97692.34
2022-12-24T05:27:55.766Z,97704.06
2022-12-24T05:30:22.490Z,97707.84
2022-12-24T05:32:49.525Z,97713.94
2022-12-24T05:35:16.279Z,97706.59
2022-12-24T05:37:43.385Z,97706.59
2022-12-24T05:40:10.414Z,97711.00
2022-12-24T05:42:37.516Z,97711.84
2022-12-24T05:45:04.544Z,97711.59
2022-12-24T05:47:31.535Z,97719.53
2022-12-24T05:49:58.298Z,97725.97
2022-12-24T05:52:25.425Z,97719.91
2022-12-24T05:54:52.154Z,97718.94
2022-12-24T05:57:19.189Z,97722.47
2022-12-24T05:59:45.992Z,97730.38
2022-12-24T06:02:13.120Z,97733.78
2022-12-24T06:04:40.114Z,97733.16
2022-12-24T06:07:07.194Z,97728.03
2022-12-24T06:09:34.012Z,97741.22
2022-12-24T06:12:01.052Z,97731.69
2022-12-24T06:14:27.766Z,97734.13
2022-12-24T06:16:54.828Z,97741.94
2022-12-24T06:19:21.656Z,97752.19
2022-12-24T06:21:48.712Z,97753.03
2022-12-24T06:24:15.978Z,97758.03
2022-12-24T06:26:43.003Z,97755.34
2022-12-24T06:29:10.306Z,97757.31
2022-12-24T06:31:37.449Z,97767.78
2022-12-24T06:34:04.177Z,97766.06
2022-12-24T06:36:31.292Z,97764.13
2022-12-24T06:38:58.047Z,97769.34
2022-12-24T06:41:25.133Z,97779.25
2022-12-24T06:43:52.453Z,97785.44
2022-12-24T06:46:19.992Z,97778.25
2022-12-24T06:48:46.800Z,97775.84
2022-12-24T06:51:14.316Z,97785.34
2022-12-24T06:53:41.290Z,97794.34
2022-12-24T06:56:09.896Z,97792.53
2022-12-24T06:58:36.725Z,97800.59
2022-12-24T07:01:08.079Z,97804.09
2022-12-24T07:03:34.906Z,97804.22
2022-12-24T07:06:02.128Z,97798.03
2022-12-24T07:08:28.935Z,97802.41
2022-12-24T07:10:56.033Z,97802.28
2022-12-24T07:13:22.799Z,97806.19
2022-12-24T07:16:00.097Z,97808.50
2022-12-24T07:18:26.944Z,97812.88
2022-12-24T07:20:54.079Z,97814.72
2022-12-24T07:23:21.019Z,97821.81
2022-12-24T07:25:48.110Z,97824.22
2022-12-24T07:28:14.894Z,97817.03
2022-12-24T07:30:41.924Z,97829.56
2022-12-24T07:33:08.791Z,97831.28
2022-12-24T07:35:35.801Z,97833.97
2022-12-24T07:38:02.753Z,97845.94
2022-12-24T07:40:29.822Z,97844.72
2022-12-24T07:42:56.631Z,97836.91
2022-12-24T07:45:23.779Z,97842.03
2022-12-24T07:47:50.538Z,97847.03
2022-12-24T07:50:17.712Z,97845.19
2022-12-24T07:52:44.454Z,97857.66
2022-12-24T07:55:11.570Z,97855.09
2022-12-24T07:57:38.326Z,97855.09
2022-12-24T08:00:06.071Z,97846.63
2022-12-24T08:02:32.959Z,97863.59
2022-12-24T08:05:00.180Z,97862.63
2022-12-24T08:07:26.898Z,97861.66
2022-12-24T08:09:53.927Z,97870.41
2022-12-24T08:12:20.749Z,97867.84
2022-12-24T08:14:47.791Z,97869.56
2022-12-24T08:17:14.498Z,97874.81
2022-12-24T08:19:41.515Z,97876.78
2022-12-24T08:22:08.326Z,97875.66
2022-12-24T08:24:35.444Z,97880.19
2022-12-24T08:27:02.185Z,97883.47
2022-12-24T08:29:29.237Z,97881.75
2022-12-24T08:31:56.044Z,97885.06
2022-12-24T08:34:23.561Z,97886.63
2022-12-24T08:36:50.331Z,97892.84
2022-12-24T08:39:17.463Z,97893.19
2022-12-24T08:41:44.184Z,97896.63
2022-12-24T08:44:11.226Z,97901.25
2022-12-24T08:46:38.029Z,97909.53
2022-12-24T08:49:05.190Z,97910.00
2022-12-24T08:51:32.312Z,97914.53
2022-12-24T08:53:59.346Z,97924.19
2022-12-24T08:56:26.168Z,97945.41
2022-12-24T08:58:53.241Z,97935.41
2022-12-24T09:01:20.455Z,97932.72
2022-12-24T09:03:47.649Z,97940.66
2022-12-24T09:06:14.579Z,97933.31
2022-12-24T09:08:41.694Z,97948.44
2022-12-24T09:11:13.415Z,97946.50
2022-12-24T09:13:40.657Z,97959.84
2022-12-24T09:16:08.005Z,97959.56
2022-12-24T09:18:35.116Z,97962.25
2022-12-24T09:21:02.611Z,97969.94
2022-12-24T09:23:29.811Z,97969.94
2022-12-24T09:25:56.608Z,97975.78
2022-12-24T09:28:23.795Z,97976.66
2022-12-24T09:31:01.056Z,97972.72
2022-12-24T09:33:29.049Z,97977.97
2022-12-24T09:35:55.810Z,97982.00
2022-12-24T09:38:23.067Z,97981.28
2022-12-24T09:40:50.008Z,97976.84
2022-12-24T09:43:24.676Z,97976.50
2022-12-24T09:46:14.417Z,97980.78
2022-12-24T09:48:44.101Z,97974.03
2022-12-24T09:51:26.853Z,97987.22
2022-12-24T09:53:57.347Z,97987.34
2022-12-24T09:56:28.371Z,97991.00
2022-12-24T09:59:03.691Z,97989.19
2022-12-24T10:01:31.609Z,97996.59
2022-12-24T10:04:00.375Z,97996.84
2022-12-24T10:06:42.362Z,97995.63
2022-12-24T10:09:15.755Z,98005.25
2022-12-24T10:11:54.360Z,98007.94
2022-12-24T10:14:43.129Z,98003.69
2022-12-24T10:17:16.085Z,98016.63
2022-12-24T10:20:09.678Z,98019.91
2022-12-24T10:23:02.954Z,98022.72
2022-12-24T10:25:56.286Z,98026.97
2022-12-24T10:28:28.525Z,98035.38
2022-12-24T10:30:58.635Z,98040.75
2022-12-24T10:33:38.400Z,98043.91
2022-12-24T10:36:11.952Z,98038.66
2022-12-24T10:38:39.170Z,98039.16
2022-12-24T10:41:06.289Z,98053.47
2022-12-24T10:43:33.058Z,98057.84
2022-12-24T10:46:02.159Z,98053.22
2022-12-24T10:48:30.926Z,98057.72
2022-12-24T10:51:06.308Z,98051.25
2022-12-24T10:53:49.055Z,98054.66
2022-12-24T10:56:17.361Z,98058.06
2022-12-24T10:58:45.577Z,98056.00
2022-12-24T11:01:12.715Z,98061.22
2022-12-24T11:03:40.123Z,98055.81
2022-12-24T11:06:22.796Z,98057.69
2022-12-24T11:08:49.531Z,98061.09
2022-12-24T11:11:20.759Z,98061.22
2022-12-24T11:13:50.674Z,98058.41
2022-12-24T11:16:24.075Z,98067.81
2022-12-24T11:18:54.701Z,98077.56
2022-12-24T11:21:26.813Z,98079.75
2022-12-24T11:23:58.358Z,98091.09
2022-12-24T11:26:29.624Z,98090.00
2022-12-24T11:29:08.507Z,98099.63
2022-12-24T11:31:38.963Z,98103.94
2022-12-24T11:34:25.732Z,98104.19
2022-12-24T11:36:53.508Z,98116.66
2022-12-24T11:39:26.404Z,98109.31
2022-12-24T11:41:53.687Z,98120.53
2022-12-24T11:44:25.584Z,98125.53
2022-12-24T11:46:56.850Z,98132.63
2022-12-24T11:49:31.389Z,98129.53
2022-12-24T11:52:11.470Z,98144.84
2022-12-24T11:54:44.693Z,98138.94
2022-12-24T11:57:11.911Z,98155.94
2022-12-24T11:59:41.917Z,98153.38
2022-12-24T12:02:30.003Z,98168.41
2022-12-24T12:04:59.833Z,98171.81
2022-12-24T12:07:29.554Z,98187.47
2022-12-24T12:09:59.761Z,98183.81
2022-12-24T12:12:28.360Z,98198.94
2022-12-24T12:15:24.608Z,98192.72
2022-12-24T12:18:12.197Z,98196.66
2022-12-24T12:20:45.285Z,98190.16
2022-12-24T12:23:31.396Z,98192.25
2022-12-24T12:25:59.196Z,98199.06
2022-12-24T12:28:32.411Z,98207.31
2022-12-24T12:31:06.028Z,98211.81
2022-12-24T12:33:41.487Z,98215.50
2022-12-24T12:36:08.803Z,98214.75
2022-12-24T12:38:36.000Z,98222.84
2022-12-24T12:41:15.009Z,98227.00
2022-12-24T12:44:01.009Z,98241.31
2022-12-24T12:46:33.640Z,98242.03
2022-12-24T12:49:12.995Z,98249.88
2022-12-24T12:51:42.903Z,98255.13
2022-12-24T12:54:22.347Z,98254.16
2022-12-24T12:56:50.547Z,98263.06
2022-12-24T12:59:41.526Z,98257.56
2022-12-24T13:02:18.549Z,98270.66
2022-12-24T13:04:51.775Z,98268.47
2022-12-24T13:07:21.280Z,98280.94
2022-12-24T13:10:35.870Z,98294.66
2022-12-24T13:13:27.329Z,98295.38
2022-12-24T13:16:14.447Z,98309.69
2022-12-24T13:18:59.801Z,98315.69
2022-12-24T13:21:28.507Z,98315.69
2022-12-24T13:24:28.301Z,98317.41
2022-12-24T13:27:23.967Z,98320.94
2022-12-24T13:30:02.159Z,98327.81
2022-12-24T13:32:34.221Z,98328.06
2022-12-24T13:35:03.153Z,98334.03
2022-12-24T13:37:34.339Z,98335.13
2022-12-24T13:40:04.117Z,98338.72
2022-12-24T13:42:59.252Z,98338.59
2022-12-24T13:45:29.197Z,98343.09
2022-12-24T13:48:14.483Z,98356.69
2022-12-24T13:50:44.245Z,98365.53
2022-12-24T13:53:33.651Z,98367.34
2022-12-24T13:56:27.127Z,98367.47
2022-12-24T13:59:08.917Z,98372.59
2022-12-24T14:01:37.163Z,98369.19
2022-12-24T14:04:04.421Z,98376.41
2022-12-24T14:06:35.986Z,98386.31
2022-12-24T14:09:10.127Z,98386.06
2022-12-24T14:11:58.938Z,98385.47
2022-12-24T14:14:29.943Z,98397.72
2022-12-24T14:16:58.530Z,98396.84
2022-12-24T14:19:32.357Z,98399.66
2022-12-24T14:22:14.933Z,98406.50
2022-12-24T14:24:43.061Z,98408.69
2022-12-24T14:27:17.162Z,98422.41
2022-12-24T14:29:52.790Z,98427.78
2022-12-24T14:32:19.525Z,98418.25
2022-12-24T14:34:46.735Z,98432.94
2022-12-24T14:37:13.597Z,98423.88
2022-12-24T14:39:46.661Z,98431.97
2022-12-24T14:42:39.164Z,98435.16
2022-12-24T14:45:47.739Z,98439.56
2022-12-24T14:48:37.667Z,98443.25
2022-12-24T14:51:28.021Z,98437.00
2022-12-24T14:54:28.814Z,98445.81
2022-12-24T14:57:11.387Z,98446.81
2022-12-24T14:59:43.938Z,98447.41
2022-12-24T15:02:43.536Z,98461.63
2022-12-24T15:05:21.459Z,98460.66
2022-12-24T15:08:18.865Z,98469.81
2022-12-24T15:10:48.281Z,98472.50
2022-12-24T15:13:21.536Z,98473.50
2022-12-24T15:15:52.507Z,98470.22
2022-12-24T15:18:22.527Z,98481.09
2022-12-24T15:20:51.213Z,98476.94
2022-12-24T15:23:19.855Z,98486.81
2022-12-24T15:25:46.709Z,98486.09
2022-12-24T15:34:05.415Z,98498.47
2022-12-24T15:36:35.675Z,98507.63
2022-12-24T15:39:07.147Z,98506.16
2022-12-24T15:41:59.627Z,98507.13
2022-12-24T15:44:27.360Z,98511.66
2022-12-24T15:47:00.991Z,98521.66
2022-12-24T15:49:31.401Z,98524.47
2022-12-24T15:52:06.529Z,98532.56
2022-12-24T15:54:33.877Z,98535.53
2022-12-24T15:57:00.904Z,98535.63
2022-12-24T15:59:28.820Z,98534.75
2022-12-24T16:01:55.905Z,98534.75
2022-12-24T16:04:27.493Z,98537.34
2022-12-24T16:07:02.085Z,98536.72
2022-12-24T16:09:37.161Z,98538.69
2022-12-24T16:12:04.304Z,98545.41
2022-12-24T16:14:31.299Z,98547.34
2022-12-24T16:16:58.733Z,98553.59
2022-12-24T16:19:26.641Z,98558.22
2022-12-24T16:21:54.509Z,98573.63
2022-12-24T16:24:25.181Z,98566.56
2022-12-24T16:34:29.709Z,98582.66
2022-12-24T16:36:56.951Z,98584.34
2022-12-24T16:39:31.549Z,98576.44
2022-12-24T16:42:18.792Z,98574.56
2022-12-24T16:44:45.767Z,98574.47
2022-12-24T16:47:15.595Z,98577.50
2022-12-24T16:49:42.404Z,98587.31
2022-12-24T16:52:16.352Z,98598.06
2022-12-24T16:54:43.132Z,98590.94
2022-12-24T16:57:10.601Z,98586.66
2022-12-24T16:59:37.534Z,98600.88
2022-12-24T17:02:09.233Z,98585.81
2022-12-24T17:04:39.724Z,98601.09
2022-12-24T17:07:07.243Z,98605.25
2022-12-24T17:09:33.985Z,98606.38
2022-12-24T17:12:01.016Z,98605.63
2022-12-24T17:14:27.736Z,98605.47
2022-12-24T17:16:54.840Z,98603.91
2022-12-24T17:19:21.559Z,98601.94
2022-12-24T17:21:48.592Z,98614.66
2022-12-24T17:24:15.478Z,98624.56
2022-12-24T17:26:43.653Z,98628.13
2022-12-24T17:29:10.439Z,98636.41
2022-12-24T17:31:40.850Z,98636.41
2022-12-24T17:34:07.660Z,98633.72
2022-12-24T17:36:34.747Z,98641.06
2022-12-24T17:39:01.536Z,98632.97
2022-12-24T17:41:28.597Z,98634.94
2022-12-24T17:43:55.300Z,98636.63
2022-12-24T17:46:23.007Z,98630.50
2022-12-24T17:48:50.840Z,98632.25
2022-12-24T17:51:20.303Z,98634.16
2022-12-24T17:53:47.205Z,98647.63
2022-12-24T17:56:15.445Z,98647.63
2022-12-24T17:58:43.451Z,98649.56
2022-12-24T18:01:20.523Z,98666.69
2022-12-24T18:03:48.271Z,98675.72
2022-12-24T18:06:15.699Z,98671.41
2022-12-24T18:08:43.079Z,98671.78
2022-12-24T18:11:32.720Z,98674.59
2022-12-24T18:14:01.067Z,98665.88
2022-12-24T18:16:34.014Z,98673.06
2022-12-24T18:19:01.888Z,98680.19
2022-12-24T18:21:30.063Z,98677.38
2022-12-24T18:23:56.955Z,98689.97
2022-12-24T18:26:28.278Z,98690.09
2022-12-24T18:28:56.049Z,98701.69
2022-12-24T18:31:24.001Z,98698.28
2022-12-24T18:33:51.209Z,98692.13
2022-12-24T18:36:18.437Z,98696.66
2022-12-24T18:38:45.292Z,98701.38
2022-12-24T18:41:20.210Z,98704.41
2022-12-24T18:43:47.142Z,98707.09
2022-12-24T18:46:25.334Z,98711.00
2022-12-24T18:48:52.392Z,98708.19
2022-12-24T18:51:22.101Z,98702.06
2022-12-24T18:53:49.323Z,98717.22
2022-12-24T18:56:18.489Z,98717.09
2022-12-24T18:58:45.306Z,98718.19
2022-12-24T19:01:20.228Z,98714.84
2022-12-24T19:03:47.376Z,98711.19
2022-12-24T19:06:14.471Z,98712.16
2022-12-24T19:08:58.898Z,98712.81
2022-12-24T19:11:28.388Z,98708.41
2022-12-24T19:13:55.354Z,98719.28
2022-12-24T19:16:22.545Z,98718.41
2022-12-24T19:18:49.860Z,98714.84
2022-12-24T19:21:17.533Z,98715.09
2022-12-24T19:23:44.975Z,98723.78
2022-12-24T19:26:12.635Z,98714.75
2022-12-24T19:28:39.453Z,98725.59
2022-12-24T19:31:09.421Z,98725.59
2022-12-24T19:33:42.698Z,98723.78
2022-12-24T19:36:12.712Z,98728.19
2022-12-24T19:38:39.614Z,98726.13
2022-12-24T19:41:13.299Z,98736.34
2022-12-24T19:43:41.339Z,98726.38
2022-12-24T19:46:09.501Z,98733.47
2022-12-24T19:48:36.557Z,98747.88
2022-12-24T19:51:06.567Z,98748.84
2022-12-24T19:53:33.613Z,98756.69
2022-12-24T19:56:00.689Z,98761.34
2022-12-24T19:58:27.849Z,98756.69
2022-12-24T20:00:55.049Z,98763.03
2022-12-24T20:03:21.990Z,98777.56
2022-12-24T20:05:49.196Z,98776.78
2022-12-24T20:08:15.981Z,98779.63
2022-12-24T20:10:43.650Z,98774.09
2022-12-24T20:13:10.685Z,98783.81
2022-12-24T20:15:39.566Z,98771.41
2022-12-24T20:18:06.629Z,98777.88
2022-12-24T20:20:33.900Z,98774.25
2022-12-24T20:23:00.797Z,98771.56
2022-12-24T20:25:28.007Z,98782.16
2022-12-24T20:27:54.812Z,98779.72
2022-12-24T20:30:21.893Z,98788.75
2022-12-24T20:32:48.734Z,98789.59
2022-12-24T20:35:15.895Z,98786.16
2022-12-24T20:37:46.178Z,98795.97
2022-12-24T20:40:13.545Z,98802.19
2022-12-24T20:42:41.288Z,98812.84
2022-12-24T20:45:08.597Z,98810.25
2022-12-24T20:47:35.377Z,98806.50
2022-12-24T20:50:02.444Z,98811.88
2022-12-24T20:52:29.429Z,98803.16
2022-12-24T20:54:56.476Z,98810.25
2022-12-24T20:57:26.824Z,98813.78
2022-12-24T20:59:55.958Z,98812.72
2022-12-24T21:02:22.796Z,98810.25
2022-12-24T21:04:50.192Z,98815.72
2022-12-24T21:07:17.312Z,98814.56
2022-12-24T21:09:44.404Z,98820.91
2022-12-24T21:12:30.390Z,98826.38
2022-12-24T21:14:57.544Z,98828.00
2022-12-24T21:17:24.392Z,98835.94
2022-12-24T21:19:51.828Z,98838.63
2022-12-24T21:22:18.537Z,98840.56
2022-12-24T21:24:45.539Z,98845.31
2022-12-24T21:27:12.366Z,98850.69
2022-12-24T21:29:39.393Z,98857.00
2022-12-24T21:32:06.143Z,98861.53
2022-12-24T21:34:33.211Z,98862.19
2022-12-24T21:36:59.984Z,98864.88
2022-12-24T21:39:27.080Z,98861.22
2022-12-24T21:41:53.841Z,98858.53
2022-12-24T21:44:20.881Z,98865.75
2022-12-24T21:46:47.656Z,98861.22
2022-12-24T21:49:33.294Z,98857.69
2022-12-24T21:52:00.113Z,98857.69
2022-12-24T21:54:28.582Z,98859.38
2022-12-24T21:57:32.431Z,98865.75
2022-12-24T22:00:18.062Z,98869.28
2022-12-24T22:02:45.287Z,98870.47
2022-12-24T22:05:12.625Z,98874.78
2022-12-24T22:07:58.058Z,98873.81
2022-12-24T22:10:43.706Z,98875.72
2022-12-24T22:13:10.471Z,98873.94
2022-12-24T22:15:46.089Z,98865.97
2022-12-24T22:18:12.942Z,98858.84
2022-12-24T22:20:40.140Z,98853.47
2022-12-24T22:23:53.206Z,98855.31
2022-12-24T22:26:27.377Z,98855.31
2022-12-24T22:28:54.347Z,98863.28
2022-12-24T22:31:29.632Z,98867.78
2022-12-24T22:33:58.219Z,98866.06
2022-12-24T22:36:26.830Z,98869.81
2022-12-24T22:39:10.388Z,98861.09
2022-12-24T22:41:44.933Z,98866.28
2022-12-24T22:44:32.760Z,98864.53
2022-12-24T22:47:01.542Z,98867.13
2022-12-24T22:49:34.344Z,98870.00
2022-12-24T22:52:12.302Z,98859.25
2022-12-24T22:54:39.902Z,98861.75
2022-12-24T22:57:08.095Z,98858.97
2022-12-24T22:59:34.850Z,98865.31
2022-12-24T23:02:04.325Z,98867.13
2022-12-24T23:04:37.854Z,98870.78
2022-12-24T23:07:05.921Z,98875.97
2022-12-24T23:09:32.896Z,98878.84
2022-12-24T23:11:59.954Z,98873.38
2022-12-24T23:14:45.457Z,98877.97
2022-12-24T23:17:12.580Z,98882.72
2022-12-24T23:19:39.410Z,98876.59
2022-12-24T23:22:06.546Z,98884.53
2022-12-24T23:24:34.129Z,98885.50
2022-12-24T23:27:01.647Z,98893.47
2022-12-24T23:29:29.395Z,98889.16
2022-12-24T23:31:56.458Z,98892.81
2022-12-24T23:34:23.355Z,98901.72
2022-12-24T23:36:50.421Z,98900.13
2022-12-24T23:39:17.175Z,98910.13
2022-12-24T23:41:44.253Z,98897.44
2022-12-24T23:44:10.985Z,98901.97
2022-12-24T23:46:38.106Z,98899.28
2022-12-24T23:49:06.072Z,98900.31
2022-12-24T23:51:33.107Z,98904.94
2022-12-24T23:53:59.836Z,98910.31
2022-12-24T23:56:26.921Z,98919.34
2022-12-24T23:58:53.709Z,98926.66
